createdAt,value
2022-12-28T00:02:13.505Z,99.90
2022-12-28T00:04:41.100Z,99.90
2022-12-28T00:07:09.018Z,99.90
2022-12-28T00:09:36.627Z,99.90
2022-12-28T00:12:04.502Z,99.90
2022-12-28T00:14:32.143Z,99.90
2022-12-28T00:16:59.790Z,99.90
2022-12-28T00:19:27.476Z,99.90
2022-12-28T00:21:55.070Z,99.90
2022-12-28T00:24:25.451Z,99.90
2022-12-28T00:26:53.405Z,99.90
2022-12-28T00:29:21.084Z,99.90
2022-12-28T00:31:49.059Z,99.90
2022-12-28T00:34:16.704Z,99.90
2022-12-28T00:37:09.948Z,99.90
2022-12-28T00:39:31.915Z,99.90
2022-12-28T00:41:59.511Z,99.90
2022-12-28T00:44:27.160Z,99.90
2022-12-28T00:46:54.758Z,99.90
2022-12-28T00:49:22.487Z,99.90
2022-12-28T00:51:50.352Z,99.90
2022-12-28T00:54:18.031Z,99.90
2022-12-28T00:56:46.478Z,99.90
2022-12-28T00:59:14.207Z,99.90
2022-12-28T01:01:42.039Z,99.90
2022-12-28T01:04:09.643Z,99.90
2022-12-28T01:06:37.200Z,99.90
2022-12-28T01:09:04.807Z,99.90
2022-12-28T01:11:32.592Z,99.90
2022-12-28T01:14:01.489Z,99.90
2022-12-28T01:16:32.792Z,99.90
2022-12-28T01:19:02.529Z,99.90
2022-12-28T01:21:32.482Z,99.90
2022-12-28T01:24:02.255Z,99.90
2022-12-28T01:26:30.319Z,99.90
2022-12-28T01:28:58.685Z,99.90
2022-12-28T01:31:26.707Z,99.90
2022-12-28T01:33:55.409Z,99.90
2022-12-28T01:36:28.351Z,99.90
2022-12-28T01:38:57.991Z,99.90
2022-12-28T01:41:27.221Z,99.90
2022-12-28T01:43:54.821Z,99.90
2022-12-28T01:46:38.224Z,99.90
2022-12-28T01:49:18.418Z,99.90
2022-12-28T01:52:02.045Z,99.90
2022-12-28T01:54:36.021Z,99.90
2022-12-28T01:57:04.186Z,99.90
2022-12-28T01:59:37.146Z,99.90
2022-12-28T02:02:05.068Z,99.90
2022-12-28T02:04:32.973Z,99.90
2022-12-28T02:07:00.641Z,99.90
2022-12-28T02:09:40.738Z,99.90
2022-12-28T02:12:13.064Z,99.90
2022-12-28T02:14:43.684Z,99.90
2022-12-28T02:17:13.180Z,99.90
2022-12-28T02:19:45.962Z,99.90
2022-12-28T02:22:22.218Z,99.90
2022-12-28T02:25:12.879Z,99.90
2022-12-28T02:28:02.514Z,99.90
2022-12-28T02:30:35.771Z,99.90
2022-12-28T02:33:15.970Z,99.90
2022-12-28T02:35:57.204Z,99.90
2022-12-28T02:38:39.799Z,99.90
2022-12-28T02:41:12.193Z,99.90
2022-12-28T02:43:40.307Z,99.90
2022-12-28T02:46:29.479Z,99.90
2022-12-28T02:49:38.062Z,99.90
2022-12-28T02:52:11.867Z,99.90
2022-12-28T02:55:28.360Z,99.90
2022-12-28T02:58:17.414Z,99.90
2022-12-28T03:01:20.632Z,99.90
2022-12-28T03:04:00.221Z,99.90
2022-12-28T03:06:55.295Z,99.90
2022-12-28T03:09:48.658Z,99.90
2022-12-28T03:12:33.243Z,99.90
2022-12-28T03:15:11.618Z,99.90
2022-12-28T03:18:01.129Z,99.90
2022-12-28T03:20:50.390Z,99.90
2022-12-28T03:23:41.703Z,99.90
2022-12-28T03:26:32.044Z,99.90
2022-12-28T03:29:21.464Z,99.90
2022-12-28T03:31:49.127Z,99.90
2022-12-28T03:34:17.216Z,99.90
2022-12-28T03:36:52.613Z,99.90
2022-12-28T03:39:41.343Z,99.90
2022-12-28T03:42:53.309Z,99.90
2022-12-28T03:45:44.943Z,99.90
2022-12-28T03:48:17.047Z,99.90
2022-12-28T03:50:47.411Z,99.90
2022-12-28T03:53:18.095Z,99.90
2022-12-28T03:55:45.815Z,99.90
2022-12-28T03:58:13.470Z,99.90
2022-12-28T04:00:41.048Z,99.90
2022-12-28T04:03:08.809Z,99.90
2022-12-28T04:05:36.512Z,99.90
2022-12-28T04:08:05.488Z,99.90
2022-12-28T04:10:33.096Z,99.90
2022-12-28T04:13:00.770Z,99.90
2022-12-28T04:15:28.385Z,99.90
2022-12-28T04:17:56.026Z,99.90
2022-12-28T04:20:23.640Z,99.90
2022-12-28T04:22:51.251Z,99.90
2022-12-28T04:25:19.163Z,99.90
2022-12-28T04:27:46.832Z,99.90
2022-12-28T04:30:14.473Z,99.90
2022-12-28T04:32:42.157Z,99.90
2022-12-28T04:35:09.826Z,99.90
2022-12-28T04:37:37.725Z,99.90
2022-12-28T04:40:05.938Z,99.90
2022-12-28T04:42:33.704Z,99.90
2022-12-28T04:45:01.375Z,99.90
2022-12-28T04:47:28.982Z,99.90
2022-12-28T04:49:56.643Z,99.90
2022-12-28T04:52:24.301Z,99.90
2022-12-28T04:54:51.957Z,99.90
2022-12-28T04:57:19.515Z,99.90
2022-12-28T04:59:47.178Z,99.90
2022-12-28T05:02:14.818Z,99.90
2022-12-28T05:04:42.453Z,99.90
2022-12-28T05:07:11.226Z,99.90
2022-12-28T05:09:38.825Z,99.90
2022-12-28T05:12:06.437Z,99.90
2022-12-28T05:14:37.110Z,99.90
2022-12-28T05:17:05.567Z,99.90
2022-12-28T05:19:33.391Z,99.90
2022-12-28T05:22:01.037Z,99.90
2022-12-28T05:24:28.592Z,99.90
2022-12-28T05:26:56.125Z,99.90
2022-12-28T05:29:23.704Z,99.90
2022-12-28T05:31:51.372Z,99.90
2022-12-28T05:34:19.061Z,99.90
2022-12-28T05:36:46.624Z,99.90
2022-12-28T05:39:14.248Z,99.90
2022-12-28T05:41:41.857Z,99.90
2022-12-28T05:44:09.446Z,99.90
2022-12-28T05:46:37.127Z,99.90
2022-12-28T05:49:07.615Z,99.90
2022-12-28T05:51:35.299Z,99.90
2022-12-28T05:54:04.462Z,99.90
2022-12-28T05:56:32.730Z,99.90
2022-12-28T05:59:02.444Z,99.90
2022-12-28T06:01:36.069Z,99.90
2022-12-28T06:04:06.569Z,99.90
2022-12-28T06:06:36.058Z,99.90
2022-12-28T06:09:04.499Z,99.90
2022-12-28T06:11:32.530Z,99.90
2022-12-28T06:14:00.712Z,99.90
2022-12-28T06:16:30.492Z,99.90
2022-12-28T06:18:58.659Z,99.90
2022-12-28T06:21:30.783Z,99.90
2022-12-28T06:24:00.198Z,99.90
2022-12-28T06:26:29.760Z,99.90
2022-12-28T06:28:58.361Z,99.90
2022-12-28T06:31:28.512Z,99.90
2022-12-28T06:33:57.665Z,99.90
2022-12-28T06:36:26.553Z,99.90
2022-12-28T06:38:56.754Z,99.90
2022-12-28T06:41:25.546Z,99.90
2022-12-28T06:43:54.169Z,99.90
2022-12-28T06:46:23.675Z,99.90
2022-12-28T06:48:51.319Z,99.90
2022-12-28T06:51:32.897Z,99.90
2022-12-28T06:54:00.498Z,99.90
2022-12-28T06:56:33.654Z,99.90
2022-12-28T06:59:03.859Z,99.90
2022-12-28T07:01:38.018Z,99.90
2022-12-28T07:04:07.976Z,99.90
2022-12-28T07:06:38.935Z,99.90
2022-12-28T07:09:09.379Z,99.90
2022-12-28T07:11:37.434Z,99.90
2022-12-28T07:14:05.008Z,99.90
2022-12-28T07:18:59.924Z,99.90
2022-12-28T07:21:30.488Z,99.90
2022-12-28T07:23:58.716Z,99.90
2022-12-28T07:26:31.850Z,99.90
2022-12-28T07:29:01.605Z,99.90
2022-12-28T07:31:39.776Z,99.90
2022-12-28T07:34:09.444Z,99.90
2022-12-28T07:36:39.783Z,99.90
2022-12-28T07:39:07.409Z,99.90
2022-12-28T07:41:36.228Z,99.90
2022-12-28T07:44:04.049Z,99.90
2022-12-28T07:46:34.397Z,99.90
2022-12-28T07:49:02.251Z,99.90
2022-12-28T07:51:32.302Z,99.90
2022-12-28T07:54:00.153Z,99.90
2022-12-28T07:56:29.941Z,99.90
2022-12-28T07:59:00.131Z,99.90
2022-12-28T08:01:33.486Z,99.90
2022-12-28T08:04:04.164Z,99.90
2022-12-28T08:06:35.604Z,99.90
2022-12-28T08:09:04.874Z,99.90
2022-12-28T08:11:34.815Z,99.90
2022-12-28T08:14:09.395Z,99.90
2022-12-28T08:16:39.803Z,99.90
2022-12-28T08:19:09.121Z,99.90
2022-12-28T08:21:40.964Z,99.90
2022-12-28T08:24:10.103Z,99.90
2022-12-28T08:26:40.269Z,99.90
2022-12-28T08:29:11.083Z,99.90
2022-12-28T08:31:40.896Z,99.90
2022-12-28T08:34:12.503Z,99.90
2022-12-28T08:36:40.565Z,99.90
2022-12-28T08:39:08.613Z,99.90
2022-12-28T08:41:36.485Z,99.90
2022-12-28T08:44:04.261Z,99.90
2022-12-28T08:46:33.942Z,99.90
2022-12-28T08:49:02.428Z,99.90
2022-12-28T08:51:33.090Z,99.90
2022-12-28T08:54:01.781Z,99.90
2022-12-28T08:56:35.767Z,99.90
2022-12-28T08:59:04.484Z,99.90
2022-12-28T09:01:40.847Z,99.90
2022-12-28T09:04:21.058Z,99.90
2022-12-28T09:06:49.168Z,99.90
2022-12-28T09:09:19.410Z,99.90
2022-12-28T09:11:47.813Z,99.90
2022-12-28T09:14:22.539Z,99.90
2022-12-28T09:16:54.546Z,99.90
2022-12-28T09:19:22.664Z,99.90
2022-12-28T09:21:52.929Z,99.90
2022-12-28T09:24:21.788Z,99.90
2022-12-28T09:26:50.900Z,99.90
2022-12-28T09:29:18.592Z,99.90
2022-12-28T09:31:46.277Z,99.90
2022-12-28T09:37:02.376Z,99.90
2022-12-28T09:39:30.647Z,99.90
2022-12-28T09:42:04.568Z,99.90
2022-12-28T09:45:00.475Z,99.90
2022-12-28T09:47:47.328Z,99.90
2022-12-28T09:50:18.611Z,99.90
2022-12-28T09:53:04.333Z,99.90
2022-12-28T09:55:33.784Z,99.90
2022-12-28T09:58:04.108Z,99.90
2022-12-28T10:00:42.743Z,99.90
2022-12-28T10:03:16.734Z,99.90
2022-12-28T10:05:44.997Z,99.90
2022-12-28T10:08:16.282Z,99.90
2022-12-28T10:10:48.693Z,99.90
2022-12-28T10:13:45.915Z,99.90
2022-12-28T10:16:20.166Z,99.90
2022-12-28T10:18:49.130Z,99.90
2022-12-28T10:21:20.320Z,99.90
2022-12-28T10:24:29.603Z,99.90
2022-12-28T10:26:44.639Z,99.90
2022-12-28T10:29:21.241Z,99.90
2022-12-28T10:32:06.404Z,99.90
2022-12-28T10:34:36.317Z,99.90
2022-12-28T10:37:18.869Z,99.90
2022-12-28T10:39:52.432Z,99.90
2022-12-28T10:42:42.573Z,99.90
2022-12-28T10:45:22.399Z,99.90
2022-12-28T10:47:53.108Z,99.90
2022-12-28T10:50:41.552Z,99.90
2022-12-28T10:53:24.373Z,99.90
2022-12-28T10:56:21.466Z,99.90
2022-12-28T10:58:54.667Z,99.90
2022-12-28T11:01:28.174Z,99.90
2022-12-28T11:03:55.919Z,99.90
2022-12-28T11:06:51.003Z,97.70
2022-12-28T11:09:23.337Z,92.60
2022-12-28T11:12:14.043Z,81.60
2022-12-28T11:14:42.933Z,79.90
2022-12-28T11:17:20.175Z,80.00
2022-12-28T11:20:10.168Z,83.80
2022-12-28T11:22:37.973Z,75.80
2022-12-28T11:25:06.975Z,68.70
2022-12-28T11:27:37.520Z,55.00
2022-12-28T11:30:10.010Z,43.00
2022-12-28T11:32:57.461Z,9.80
2022-12-28T11:35:35.406Z,17.40
2022-12-28T11:38:05.574Z,11.70
2022-12-28T11:40:45.312Z,22.40
2022-12-28T11:43:29.157Z,19.00
2022-12-28T11:45:57.833Z,17.70
2022-12-28T11:48:45.844Z,21.70
2022-12-28T11:51:17.923Z,27.50
2022-12-28T11:53:45.498Z,37.20
2022-12-28T11:56:16.146Z,38.30
2022-12-28T11:58:48.719Z,41.90
2022-12-28T12:01:29.275Z,33.20
2022-12-28T12:03:56.923Z,51.20
2022-12-28T12:06:42.955Z,61.20
2022-12-28T12:09:22.591Z,73.00
2022-12-28T12:12:22.526Z,88.60
2022-12-28T12:15:10.655Z,91.30
2022-12-28T12:17:54.471Z,89.20
2022-12-28T12:20:40.448Z,92.50
2022-12-28T12:23:36.311Z,93.80
2022-12-28T12:26:27.754Z,91.60
2022-12-28T12:29:00.497Z,97.30
2022-12-28T12:31:56.820Z,97.00
2022-12-28T12:34:33.729Z,99.50
2022-12-28T12:37:29.117Z,97.00
2022-12-28T12:40:47.991Z,97.10
2022-12-28T12:43:37.321Z,99.30
2022-12-28T12:46:29.678Z,99.90
2022-12-28T12:49:16.253Z,97.70
2022-12-28T12:52:17.837Z,99.90
2022-12-28T12:54:51.270Z,95.40
2022-12-28T12:57:33.750Z,99.90
2022-12-28T13:00:19.784Z,99.90
2022-12-28T13:03:08.309Z,99.90
2022-12-28T13:05:39.829Z,98.70
2022-12-28T13:08:22.629Z,99.90
2022-12-28T13:10:51.218Z,99.90
2022-12-28T13:13:33.636Z,99.90
2022-12-28T13:16:04.085Z,99.90
2022-12-28T13:18:48.111Z,99.90
2022-12-28T13:21:22.608Z,99.90
2022-12-28T13:23:54.593Z,99.90
2022-12-28T13:26:31.287Z,99.90
2022-12-28T13:29:01.544Z,99.90
2022-12-28T13:31:42.101Z,99.90
2022-12-28T13:34:26.465Z,99.90
2022-12-28T13:36:59.466Z,99.90
2022-12-28T13:39:35.468Z,99.90
2022-12-28T13:42:16.816Z,99.90
2022-12-28T13:44:51.151Z,99.90
2022-12-28T13:47:24.191Z,99.90
2022-12-28T13:49:57.814Z,99.90
2022-12-28T13:52:34.390Z,99.90
2022-12-28T13:55:11.942Z,99.90
2022-12-28T13:57:49.035Z,99.90
2022-12-28T14:00:19.706Z,99.90
2022-12-28T14:02:49.306Z,99.90
2022-12-28T14:05:28.444Z,99.90
2022-12-28T14:07:58.598Z,99.90
2022-12-28T14:10:27.354Z,99.90
2022-12-28T14:12:56.209Z,99.90
2022-12-28T14:15:24.372Z,99.90
2022-12-28T14:17:52.746Z,99.90
2022-12-28T14:20:23.337Z,99.90
2022-12-28T14:22:51.054Z,99.90
2022-12-28T14:25:22.452Z,99.90
2022-12-28T14:28:06.179Z,99.90
2022-12-28T14:30:42.077Z,99.90
2022-12-28T14:33:24.425Z,99.90
2022-12-28T14:35:59.670Z,99.90
2022-12-28T14:38:38.369Z,99.90
2022-12-28T14:41:06.928Z,99.90
2022-12-28T14:43:36.315Z,99.90
2022-12-28T14:46:28.931Z,99.90
2022-12-28T14:48:56.770Z,99.90
2022-12-28T14:51:30.392Z,99.90
2022-12-28T14:54:25.348Z,99.90
2022-12-28T14:57:14.347Z,99.90
2022-12-28T14:59:45.977Z,99.90
2022-12-28T15:02:35.668Z,99.90
2022-12-28T15:05:03.840Z,99.90
2022-12-28T15:07:32.018Z,99.90
2022-12-28T15:09:59.705Z,99.90
2022-12-28T15:12:27.274Z,99.90
2022-12-28T15:14:57.657Z,99.90
2022-12-28T15:17:29.906Z,99.90
2022-12-28T15:20:00.963Z,99.90
2022-12-28T15:22:28.675Z,99.90
2022-12-28T15:24:56.307Z,99.90
2022-12-28T15:27:23.874Z,99.90
2022-12-28T15:30:07.835Z,99.90
2022-12-28T15:32:44.169Z,99.90
2022-12-28T15:35:11.867Z,99.90
2022-12-28T15:37:39.539Z,99.90
2022-12-28T15:40:07.917Z,99.90
2022-12-28T15:42:40.267Z,99.90
2022-12-28T15:45:09.198Z,99.90
2022-12-28T15:47:39.733Z,99.90
2022-12-28T15:50:07.782Z,99.90
2022-12-28T15:52:35.520Z,99.90
2022-12-28T15:55:03.390Z,99.90
2022-12-28T15:57:31.349Z,99.90
2022-12-28T15:59:59.008Z,99.90
2022-12-28T16:02:26.885Z,99.90
2022-12-28T16:04:55.865Z,99.90
2022-12-28T16:07:24.033Z,99.90
2022-12-28T16:09:51.884Z,99.90
2022-12-28T16:12:20.550Z,99.90
2022-12-28T16:14:48.190Z,99.90
2022-12-28T16:17:16.079Z,97.70
2022-12-28T16:19:43.703Z,99.50
2022-12-28T16:22:11.697Z,98.40
2022-12-28T16:24:39.281Z,98.30
2022-12-28T16:27:06.944Z,99.90
2022-12-28T16:29:36.786Z,97.10
2022-12-28T16:32:04.756Z,98.10
2022-12-28T16:34:33.605Z,97.90
2022-12-28T16:37:01.278Z,94.20
2022-12-28T16:39:31.769Z,93.00
2022-12-28T16:41:59.490Z,93.90
2022-12-28T16:44:27.910Z,92.20
2022-12-28T16:46:58.618Z,88.10
2022-12-28T16:49:27.117Z,90.00
2022-12-28T16:51:55.051Z,84.80
2022-12-28T16:54:28.116Z,84.90
2022-12-28T16:56:56.040Z,77.30
2022-12-28T16:59:28.177Z,69.50
2022-12-28T17:01:56.912Z,67.60
2022-12-28T17:04:24.853Z,66.40
2022-12-28T17:06:53.053Z,63.90
2022-12-28T17:09:21.046Z,68.10
2022-12-28T17:11:49.830Z,71.80
2022-12-28T17:14:35.833Z,65.40
2022-12-28T17:17:06.223Z,63.90
2022-12-28T17:19:34.564Z,68.10
2022-12-28T17:22:02.616Z,73.00
2022-12-28T17:24:30.839Z,73.50
2022-12-28T17:27:05.224Z,69.10
2022-12-28T17:29:35.923Z,70.30
2022-12-28T17:32:04.508Z,74.80
2022-12-28T17:34:32.817Z,76.60
2022-12-28T17:37:00.544Z,85.00
2022-12-28T17:39:30.281Z,89.40
2022-12-28T17:42:00.890Z,92.10
2022-12-28T17:44:28.537Z,94.90
2022-12-28T17:46:56.236Z,97.10
2022-12-28T17:49:25.151Z,97.10
2022-12-28T17:51:52.732Z,98.40
2022-12-28T17:54:20.455Z,99.00
2022-12-28T17:56:48.125Z,99.90
2022-12-28T17:59:17.148Z,99.90
2022-12-28T18:01:44.941Z,99.90
2022-12-28T18:04:12.761Z,99.90
2022-12-28T18:06:43.328Z,99.90
2022-12-28T18:09:10.969Z,99.90
2022-12-28T18:11:38.718Z,99.90
2022-12-28T18:14:10.650Z,99.90
2022-12-28T18:16:38.680Z,99.90
2022-12-28T18:19:12.255Z,99.90
2022-12-28T18:21:41.275Z,99.90
2022-12-28T18:24:12.750Z,99.90
2022-12-28T18:26:40.378Z,99.90
2022-12-28T18:29:08.137Z,99.90
2022-12-28T18:31:35.946Z,99.90
2022-12-28T18:34:04.277Z,99.90
2022-12-28T18:36:32.026Z,99.90
2022-12-28T18:38:59.646Z,99.90
2022-12-28T18:41:33.464Z,99.90
2022-12-28T18:44:02.873Z,99.90
2022-12-28T18:46:30.963Z,99.90
2022-12-28T18:49:00.541Z,99.90
2022-12-28T18:51:28.237Z,99.90
2022-12-28T18:53:55.810Z,99.90
2022-12-28T18:56:26.081Z,99.90
2022-12-28T18:58:55.796Z,99.90
2022-12-28T19:02:04.520Z,99.90
2022-12-28T19:04:14.409Z,99.90
2022-12-28T19:06:42.819Z,99.90
2022-12-28T19:09:11.255Z,99.90
2022-12-28T19:11:40.103Z,99.90
2022-12-28T19:14:10.276Z,99.90
2022-12-28T19:16:38.342Z,99.90
2022-12-28T19:19:06.194Z,99.90
2022-12-28T19:21:36.347Z,99.90
2022-12-28T19:24:12.803Z,99.90
2022-12-28T19:26:40.742Z,99.90
2022-12-28T19:29:10.319Z,99.90
2022-12-28T19:31:37.957Z,99.90
2022-12-28T19:34:05.823Z,99.90
2022-12-28T19:36:33.484Z,99.90
2022-12-28T19:39:01.246Z,99.90
2022-12-28T19:41:28.822Z,99.90
2022-12-28T19:43:56.677Z,99.90
2022-12-28T19:46:32.275Z,99.90
2022-12-28T19:49:02.448Z,99.90
2022-12-28T19:51:32.582Z,99.90
2022-12-28T19:54:01.935Z,99.90
2022-12-28T19:56:29.745Z,99.90
2022-12-28T19:59:05.148Z,99.90
2022-12-28T20:01:36.097Z,99.90
2022-12-28T20:04:10.397Z,99.90
2022-12-28T20:06:44.459Z,99.90
2022-12-28T20:09:13.440Z,99.90
2022-12-28T20:11:42.050Z,99.90
2022-12-28T20:14:12.640Z,99.90
2022-12-28T20:16:44.839Z,99.90
2022-12-28T20:19:13.271Z,99.90
2022-12-28T20:21:43.758Z,99.90
2022-12-28T20:24:14.813Z,99.90
2022-12-28T20:26:42.466Z,99.90
2022-12-28T20:29:10.277Z,99.90
2022-12-28T20:31:38.008Z,99.90
2022-12-28T20:34:05.770Z,99.90
2022-12-28T20:36:34.185Z,99.90
2022-12-28T20:39:03.211Z,99.90
2022-12-28T20:41:51.331Z,99.90
2022-12-28T20:44:25.884Z,99.90
2022-12-28T20:46:54.383Z,99.90
2022-12-28T20:49:23.789Z,99.90
2022-12-28T20:51:51.803Z,99.90
2022-12-28T20:54:20.275Z,99.90
2022-12-28T20:56:54.314Z,99.90
2022-12-28T20:59:24.994Z,99.90
2022-12-28T21:01:53.191Z,99.90
2022-12-28T21:04:22.201Z,99.90
2022-12-28T21:06:50.013Z,99.90
2022-12-28T21:09:17.797Z,99.90
2022-12-28T21:11:45.506Z,99.90
2022-12-28T21:14:13.218Z,99.90
2022-12-28T21:16:40.904Z,99.90
2022-12-28T21:19:10.430Z,99.90
2022-12-28T21:21:48.631Z,99.90
2022-12-28T21:24:16.454Z,99.90
2022-12-28T21:26:44.155Z,99.90
2022-12-28T21:29:11.747Z,99.90
2022-12-28T21:31:39.519Z,99.90
2022-12-28T21:34:07.247Z,99.90
2022-12-28T21:36:34.897Z,99.90
2022-12-28T21:39:02.561Z,99.90
2022-12-28T21:41:48.735Z,99.90
2022-12-28T21:44:19.628Z,99.90
2022-12-28T21:46:50.273Z,99.90
2022-12-28T21:49:18.818Z,99.90
2022-12-28T21:51:50.133Z,99.90
2022-12-28T21:54:20.613Z,99.90
2022-12-28T21:56:53.266Z,99.90
2022-12-28T21:59:22.543Z,99.90
2022-12-28T22:02:09.898Z,99.90
2022-12-28T22:05:02.527Z,99.90
2022-12-28T22:07:31.267Z,99.90
2022-12-28T22:10:17.440Z,99.90
2022-12-28T22:12:45.196Z,99.90
2022-12-28T22:15:39.643Z,99.90
2022-12-28T22:19:01.023Z,99.90
2022-12-28T22:21:10.297Z,99.90
2022-12-28T22:23:37.916Z,99.90
2022-12-28T22:26:05.652Z,99.90
2022-12-28T22:28:33.536Z,99.90
2022-12-28T22:31:05.632Z,99.90
2022-12-28T22:33:34.695Z,99.90
2022-12-28T22:36:16.969Z,99.90
2022-12-28T22:38:44.739Z,99.90
2022-12-28T22:41:12.975Z,99.90
2022-12-28T22:43:40.837Z,99.90
2022-12-28T22:46:10.749Z,99.90
2022-12-28T22:48:38.520Z,99.90
2022-12-28T22:51:11.760Z,99.90
2022-12-28T22:53:40.261Z,99.90
2022-12-28T22:56:11.983Z,99.90
2022-12-28T22:58:39.622Z,99.90
2022-12-28T23:01:12.864Z,99.90
2022-12-28T23:03:42.298Z,99.90
2022-12-28T23:06:11.758Z,99.90
2022-12-28T23:08:42.613Z,99.90
2022-12-28T23:11:31.534Z,99.90
2022-12-28T23:14:19.466Z,99.90
2022-12-28T23:16:47.836Z,99.90
2022-12-28T23:19:35.133Z,99.90
2022-12-28T23:22:22.810Z,99.90
2022-12-28T23:25:09.224Z,99.90
2022-12-28T23:27:42.123Z,99.90
2022-12-28T23:30:13.442Z,99.90
2022-12-28T23:32:41.091Z,99.90
2022-12-28T23:35:09.189Z,99.90
2022-12-28T23:37:36.851Z,99.90
2022-12-28T23:40:05.066Z,99.90
2022-12-28T23:42:32.691Z,99.90
2022-12-28T23:45:00.292Z,99.90
2022-12-28T23:47:30.981Z,99.90
2022-12-28T23:49:58.715Z,99.90
2022-12-28T23:52:26.716Z,99.90
2022-12-28T23:54:54.503Z,99.90
2022-12-28T23:57:22.396Z,99.90
2022-12-28T23:59:50.179Z,99.90
